Time;durP1;ratioP1;P1;durP2;ratioP2;P2;SDS_P1;SDS_P2;PMS_P1;PMS_P2;Temp;Humidity;BMP_temperature;BMP_pressure;BME280_temperature;BME280_humidity;BME280_pressure;Samples;Min_cycle;Max_cycle;Signal;HPM_P1;HPM_P2
2023/12/18 00:00:24;;;;;;;34.20;14.05;;;;;;;-146.25;100.00;52635.84;2072233;28;34789;-79
2023/12/18 00:01:28;;;;;;;30.17;13.77;;;;;;;-146.25;100.00;52631.78;2072336;28;33254;-78
2023/12/18 00:02:30;;;;;;;28.88;13.75;;;;;;;-146.25;100.00;52698.72;2071768;28;36778;-76
2023/12/18 00:03:31;;;;;;;28.58;13.48;;;;;;;-146.25;100.00;52643.97;2072407;28;35587;-76
2023/12/18 00:04:33;;;;;;;27.75;13.35;;;;;;;-146.25;100.00;52664.22;2072231;28;32073;-78
2023/12/18 00:05:36;;;;;;;30.30;14.10;;;;;;;-146.25;100.00;52631.78;2071544;28;36774;-76
2023/12/18 00:06:38;;;;;;;32.35;13.60;;;;;;;-146.25;100.00;52650.03;2071911;28;37781;-78
2023/12/18 00:07:42;;;;;;;26.65;13.43;;;;;;;-146.25;100.00;52625.72;2072311;28;32503;-77
2023/12/18 00:08:44;;;;;;;26.13;13.77;;;;;;;-146.25;100.00;52609.50;2071336;28;30390;-76
2023/12/18 00:09:46;;;;;;;28.55;13.25;;;;;;;-146.25;100.00;52631.78;2071546;28;36639;-77
2023/12/18 00:10:47;;;;;;;31.05;13.80;;;;;;;-146.25;100.00;52645.97;2072271;28;35173;-78
2023/12/18 00:11:49;;;;;;;32.60;13.30;;;;;;;-146.25;100.00;52658.16;2071981;28;37314;-75
2023/12/18 00:12:51;;;;;;;24.85;13.43;;;;;;;-146.25;100.00;52652.06;2071755;28;34998;-76
2023/12/18 00:13:58;;;;;;;30.05;14.27;;;;;;;-146.25;100.00;52670.31;2071314;28;35735;-79
2023/12/18 00:14:59;;;;;;;28.90;13.93;;;;;;;-146.25;100.00;52656.13;2071944;28;32149;-79
2023/12/18 00:16:04;;;;;;;35.33;14.10;;;;;;;-146.25;100.00;52645.97;2071780;28;20887;-78
2023/12/18 00:17:06;;;;;;;29.45;13.75;;;;;;;-146.25;100.00;52639.91;2071473;28;36244;-76
2023/12/18 00:18:07;;;;;;;33.63;14.32;;;;;;;-146.25;100.00;52643.97;2071428;28;34244;-77
2023/12/18 00:19:10;;;;;;;23.45;13.07;;;;;;;-146.25;100.00;52619.63;2063628;28;32108;-77
2023/12/18 00:20:12;;;;;;;31.38;13.25;;;;;;;-146.25;100.00;52643.97;2063341;28;37831;-77
2023/12/18 00:21:15;;;;;;;30.48;14.10;;;;;;;-146.25;100.00;52631.78;2072252;28;36315;-76
2023/12/18 00:22:16;;;;;;;32.75;13.50;;;;;;;-146.25;100.00;52641.94;2071435;28;37499;-77
2023/12/18 00:23:18;;;;;;;25.10;13.02;;;;;;;-146.25;100.00;52668.28;2071422;28;36447;-76
2023/12/18 00:24:20;;;;;;;26.65;12.80;;;;;;;-146.25;100.00;52635.84;2072240;28;36815;-77
2023/12/18 00:25:22;;;;;;;30.33;13.73;;;;;;;-146.25;100.00;52668.28;2072175;28;34699;-76
2023/12/18 00:26:24;;;;;;;27.58;14.25;;;;;;;-146.25;100.00;52611.50;2071720;28;37746;-78
2023/12/18 00:27:28;;;;;;;29.85;13.82;;;;;;;-146.25;100.00;52625.72;2071769;28;30288;-79
2023/12/18 00:28:29;;;;;;;29.60;13.65;;;;;;;-146.25;100.00;52625.72;2071946;28;35147;-78
2023/12/18 00:29:31;;;;;;;32.40;13.88;;;;;;;-146.25;100.00;52609.50;2071575;28;34321;-77
2023/12/18 00:30:37;;;;;;;32.03;14.25;;;;;;;-146.25;100.00;52623.69;2071318;28;33391;-78
2023/12/18 00:31:39;;;;;;;31.00;13.73;;;;;;;-146.25;100.00;52678.44;2071959;28;37849;-77
2023/12/18 00:32:41;;;;;;;30.30;13.38;;;;;;;-146.25;100.00;52666.25;2071166;28;35567;-77
2023/12/18 00:33:42;;;;;;;30.67;13.75;;;;;;;-146.25;100.00;52660.19;2071328;28;35045;-79
2023/12/18 00:34:47;;;;;;;28.20;13.75;;;;;;;-146.25;100.00;52627.75;2071113;28;38177;-77
2023/12/18 00:35:48;;;;;;;27.15;13.88;;;;;;;-146.25;100.00;52623.69;2071513;28;32801;-75
2023/12/18 00:36:50;;;;;;;32.42;13.77;;;;;;;-146.25;100.00;52660.19;2072176;28;30746;-78
2023/12/18 00:37:52;;;;;;;31.10;13.77;;;;;;;-146.25;100.00;52645.97;2072257;28;36723;-77
2023/12/18 00:38:54;;;;;;;26.25;13.57;;;;;;;-146.25;100.00;52672.34;2071955;28;35421;-77
2023/12/18 00:39:55;;;;;;;30.80;13.23;;;;;;;-146.25;100.00;52672.34;2071410;28;32548;-76
2023/12/18 00:40:57;;;;;;;29.50;14.25;;;;;;;-146.25;100.00;52652.06;2071113;28;35706;-77
2023/12/18 00:41:59;;;;;;;32.95;14.25;;;;;;;-146.25;100.00;52619.63;2071692;28;34345;-78
2023/12/18 00:43:01;;;;;;;29.52;14.07;;;;;;;-146.25;100.00;52668.28;2072009;28;33996;-77
2023/12/18 00:44:03;;;;;;;29.73;14.38;;;;;;;-146.25;100.00;52641.94;2071970;28;33127;-76
2023/12/18 00:45:08;;;;;;;28.60;14.20;;;;;;;-146.25;100.00;52623.69;2071987;28;29252;-76
2023/12/18 00:46:09;;;;;;;32.30;14.20;;;;;;;-146.25;100.00;52650.03;2071353;28;34626;-77
2023/12/18 00:47:11;;;;;;;32.10;15.18;;;;;;;-146.25;100.00;52643.97;2070983;28;36122;-79
2023/12/18 00:48:13;;;;;;;34.05;15.15;;;;;;;-146.25;100.00;52635.84;2072365;28;20046;-78
2023/12/18 00:49:15;;;;;;;31.77;14.50;;;;;;;-146.25;100.00;52611.50;2071260;28;34406;-78
2023/12/18 00:50:20;;;;;;;31.15;14.55;;;;;;;-146.25;100.00;52648.00;2072875;28;20850;-78
2023/12/18 00:51:22;;;;;;;33.63;14.20;;;;;;;-146.25;100.00;52643.97;2072293;28;20054;-78
2023/12/18 00:52:24;;;;;;;28.23;14.05;;;;;;;-146.25;100.00;52648.00;2071524;28;36207;-78
2023/12/18 00:53:26;;;;;;;34.22;14.88;;;;;;;-146.25;100.00;52639.91;2063512;28;20888;-79
2023/12/18 00:54:27;;;;;;;27.83;14.20;;;;;;;-146.25;100.00;52682.47;2055072;28;38511;-79
2023/12/18 00:55:32;;;;;;;27.52;14.38;;;;;;;-146.25;100.00;52648.00;2063352;28;35810;-77
2023/12/18 00:56:38;;;;;;;27.73;14.65;;;;;;;-146.25;100.00;52621.66;2071949;28;37052;-77
2023/12/18 00:57:42;;;;;;;25.08;13.65;;;;;;;-146.25;100.00;52672.34;2071928;28;37199;-78
2023/12/18 00:58:44;;;;;;;27.52;14.80;;;;;;;-146.25;100.00;52637.88;2071603;28;33614;-75
2023/12/18 00:59:46;;;;;;;33.05;14.88;;;;;;;-146.25;100.00;52662.22;2072016;28;36853;-77
2023/12/18 01:00:49;;;;;;;36.67;15.63;;;;;;;-146.25;100.00;52637.88;2072609;28;20046;-75
2023/12/18 01:01:51;;;;;;;33.00;14.90;;;;;;;-146.25;100.00;52666.25;2071742;28;31358;-77
2023/12/18 01:02:53;;;;;;;30.60;14.95;;;;;;;-146.25;100.00;52643.97;2071650;28;35974;-77
2023/12/18 01:03:55;;;;;;;31.80;15.00;;;;;;;-146.25;100.00;52631.78;2071946;28;37228;-78
2023/12/18 01:04:56;;;;;;;28.17;15.20;;;;;;;-146.25;100.00;52631.78;2072336;28;36464;-78
2023/12/18 01:05:58;;;;;;;37.50;15.27;;;;;;;-146.25;100.00;52629.75;2073019;28;33523;-79
2023/12/18 01:07:03;;;;;;;34.13;15.60;;;;;;;-146.25;100.00;52623.69;2073228;28;37701;-77
2023/12/18 01:08:05;;;;;;;30.70;15.45;;;;;;;-146.25;100.00;52623.69;2073432;28;30308;-78
2023/12/18 01:09:09;;;;;;;30.42;14.80;;;;;;;-146.25;100.00;52637.88;2071974;28;34220;-79
2023/12/18 01:10:11;;;;;;;31.60;15.07;;;;;;;-146.25;100.00;52629.75;2071024;28;38118;-79
2023/12/18 01:11:15;;;;;;;29.70;15.18;;;;;;;-146.25;100.00;52680.47;2071499;28;34204;-75
2023/12/18 01:12:17;;;;;;;34.85;14.93;;;;;;;-146.25;100.00;52648.00;2071915;28;35333;-76
2023/12/18 01:13:21;;;;;;;38.85;15.35;;;;;;;-146.25;100.00;52621.66;2072900;28;20046;-76
2023/12/18 01:14:23;;;;;;;32.50;15.60;;;;;;;-146.25;100.00;52643.97;2072603;28;20042;-76
2023/12/18 01:15:25;;;;;;;27.98;14.65;;;;;;;-146.25;100.00;52631.78;2071210;28;34397;-78
2023/12/18 01:16:27;;;;;;;32.72;16.15;;;;;;;-146.25;100.00;52631.78;2070822;28;33742;-79
2023/12/18 01:17:29;;;;;;;31.55;16.20;;;;;;;-146.25;100.00;52658.16;2071118;28;34639;-75
2023/12/18 01:18:36;;;;;;;31.70;16.60;;;;;;;-146.25;100.00;52692.63;2071403;28;38569;-76
2023/12/18 01:19:37;;;;;;;31.45;15.82;;;;;;;-146.25;100.00;52660.19;2072343;28;20046;-76
2023/12/18 01:20:39;;;;;;;33.35;16.02;;;;;;;-146.25;100.00;52639.91;2071416;28;35050;-76
2023/12/18 01:21:41;;;;;;;33.20;15.57;;;;;;;-146.25;100.00;52656.13;2071875;28;31895;-76
2023/12/18 01:22:43;;;;;;;35.42;15.77;;;;;;;-146.25;100.00;52627.75;2071266;28;34980;-76
2023/12/18 01:23:47;;;;;;;37.03;16.35;;;;;;;-146.25;100.00;52672.34;2071008;28;35873;-76
2023/12/18 01:24:49;;;;;;;33.03;16.63;;;;;;;-146.25;100.00;52672.34;2062786;28;31784;-76
2023/12/18 01:25:50;;;;;;;29.98;15.43;;;;;;;-146.25;100.00;52629.75;2063211;28;32573;-75
2023/12/18 01:26:57;;;;;;;31.38;16.65;;;;;;;-146.25;100.00;52662.22;2071547;28;34586;-76
2023/12/18 01:27:59;;;;;;;27.67;14.57;;;;;;;-146.25;100.00;52696.69;2071322;28;36351;-75
2023/12/18 01:29:01;;;;;;;31.95;16.13;;;;;;;-146.25;100.00;52639.91;2062999;28;34816;-76
2023/12/18 01:30:04;;;;;;;33.30;15.88;;;;;;;-146.25;100.00;52617.59;2062900;28;37084;-74
2023/12/18 01:31:19;;;;;;;35.97;16.40;;;;;;;-146.25;100.00;52652.06;2071040;28;33129;-76
2023/12/18 01:32:21;;;;;;;28.02;15.60;;;;;;;-146.25;100.00;52607.47;2071000;28;33116;-76
2023/12/18 01:33:22;;;;;;;34.28;16.00;;;;;;;-146.25;100.00;52619.63;2071493;28;38124;-76
2023/12/18 01:34:24;;;;;;;30.90;16.10;;;;;;;-146.25;100.00;52670.31;2071280;28;20125;-74
2023/12/18 01:35:26;;;;;;;31.42;16.08;;;;;;;-146.25;100.00;52652.06;2071928;28;26326;-77
2023/12/18 01:36:28;;;;;;;31.60;16.38;;;;;;;-146.25;100.00;52643.97;2071814;28;25104;-76
2023/12/18 01:37:30;;;;;;;37.40;17.20;;;;;;;-146.25;100.00;52637.88;2071734;28;34774;-78
2023/12/18 01:38:32;;;;;;;38.38;17.35;;;;;;;-146.25;100.00;52633.81;2071551;28;35060;-77
2023/12/18 01:39:34;;;;;;;39.03;17.75;;;;;;;-146.25;100.00;52617.59;2071670;28;32687;-78
2023/12/18 01:40:39;;;;;;;37.15;16.05;;;;;;;-146.25;100.00;52635.84;2072010;28;25087;-76
2023/12/18 01:41:40;;;;;;;30.45;15.60;;;;;;;-146.25;100.00;52664.22;2070967;28;38645;-78
2023/12/18 01:42:45;;;;;;;34.55;16.40;;;;;;;-146.25;100.00;52627.75;2071564;28;20072;-76
2023/12/18 01:43:47;;;;;;;33.03;16.20;;;;;;;-146.25;100.00;52629.75;2071873;28;35833;-76
2023/12/18 01:44:49;;;;;;;39.40;16.40;;;;;;;-146.25;100.00;52645.97;2071232;28;36286;-77
2023/12/18 01:46:03;;;;;;;34.70;15.80;;;;;;;-146.25;100.00;52650.03;2071162;28;33070;-76
2023/12/18 01:47:04;;;;;;;34.10;16.15;;;;;;;-146.25;100.00;52670.31;2070605;28;38584;-75
2023/12/18 01:48:07;;;;;;;32.67;16.63;;;;;;;-146.25;100.00;52643.97;2072383;28;21120;-78
2023/12/18 01:49:09;;;;;;;31.10;15.73;;;;;;;-146.25;100.00;52658.16;2071209;28;34944;-76
2023/12/18 01:50:11;;;;;;;31.85;16.08;;;;;;;-146.25;100.00;52643.97;2071240;28;34481;-75
2023/12/18 01:51:13;;;;;;;35.70;15.75;;;;;;;-146.25;100.00;52625.72;2071301;28;26470;-76
2023/12/18 01:52:17;;;;;;;30.25;16.35;;;;;;;-146.25;100.00;52668.28;2071211;28;32870;-76
2023/12/18 01:53:22;;;;;;;31.75;15.57;;;;;;;-146.25;100.00;52662.22;2072189;28;20815;-75
2023/12/18 01:54:25;;;;;;;33.88;17.10;;;;;;;-146.25;100.00;52672.34;2071198;28;38957;-76
2023/12/18 01:55:26;;;;;;;37.33;17.17;;;;;;;-146.25;100.00;52686.53;2070920;28;35244;-77
2023/12/18 01:56:33;;;;;;;34.70;15.95;;;;;;;-146.25;100.00;52643.97;2071296;28;20051;-77
2023/12/18 01:57:35;;;;;;;36.47;16.08;;;;;;;-146.25;100.00;52656.13;2071143;28;36473;-77
2023/12/18 01:58:38;;;;;;;32.55;16.25;;;;;;;-146.25;100.00;52676.41;2071448;28;20046;-77
2023/12/18 01:59:40;;;;;;;32.35;16.20;;;;;;;-146.25;100.00;52603.41;2071004;28;27333;-77
2023/12/18 02:00:45;;;;;;;32.78;16.58;;;;;;;-146.25;100.00;52676.41;2071082;28;32350;-77
2023/12/18 02:01:47;;;;;;;33.80;16.05;;;;;;;-146.25;100.00;52639.91;2072261;28;20042;-77
2023/12/18 02:02:49;;;;;;;31.15;16.98;;;;;;;-146.25;100.00;52654.09;2071335;28;35637;-77
2023/12/18 02:03:52;;;;;;;30.75;15.57;;;;;;;-146.25;100.00;52631.78;2071750;28;20093;-76
2023/12/18 02:04:55;;;;;;;31.42;16.52;;;;;;;-146.25;100.00;52635.84;2070899;28;37398;-77
2023/12/18 02:05:57;;;;;;;34.25;17.08;;;;;;;-146.25;100.00;52648.00;2071539;28;37200;-77
2023/12/18 02:07:01;;;;;;;30.83;16.58;;;;;;;-146.25;100.00;52635.84;2071962;28;23355;-77
2023/12/18 02:08:06;;;;;;;32.05;15.57;;;;;;;-146.25;100.00;52641.94;2071673;28;36676;-77
2023/12/18 02:09:09;;;;;;;33.45;16.77;;;;;;;-146.25;100.00;52666.25;2071799;28;20109;-77
2023/12/18 02:10:10;;;;;;;33.40;16.00;;;;;;;-146.25;100.00;52613.53;2070960;28;37836;-76
2023/12/18 02:11:12;;;;;;;38.67;17.17;;;;;;;-146.25;100.00;52635.84;2062613;28;26895;-76
2023/12/18 02:12:14;;;;;;;33.70;16.38;;;;;;;-146.25;100.00;52631.78;2062961;28;34630;-78
2023/12/18 02:13:16;;;;;;;33.53;16.02;;;;;;;-146.25;100.00;52631.78;2071058;28;35235;-77
2023/12/18 02:14:18;;;;;;;38.45;16.58;;;;;;;-146.25;100.00;52680.47;2072005;28;20046;-77
2023/12/18 02:15:22;;;;;;;33.03;16.30;;;;;;;-146.25;100.00;52680.47;2071991;28;20046;-77
2023/12/18 02:16:26;;;;;;;31.20;16.50;;;;;;;-146.25;100.00;52623.69;2071476;28;33606;-77
2023/12/18 02:17:28;;;;;;;33.03;16.90;;;;;;;-146.25;100.00;52654.09;2070911;28;29491;-77
2023/12/18 02:18:30;;;;;;;33.83;15.95;;;;;;;-146.25;100.00;52688.56;2071173;28;34079;-75
2023/12/18 02:19:33;;;;;;;31.15;16.30;;;;;;;-146.25;100.00;52645.97;2071605;28;20038;-76
2023/12/18 02:20:35;;;;;;;30.30;16.48;;;;;;;-146.25;100.00;52688.56;2071285;28;35135;-77
2023/12/18 02:21:37;;;;;;;31.00;16.95;;;;;;;-146.25;100.00;52607.47;2071199;28;34045;-77
2023/12/18 02:22:47;;;;;;;32.13;17.38;;;;;;;-146.25;100.00;52627.75;2071750;28;28423;-77
2023/12/18 02:23:50;;;;;;;30.92;17.15;;;;;;;-146.25;100.00;52639.91;2072217;28;20035;-77
2023/12/18 02:24:52;;;;;;;36.50;17.25;;;;;;;-146.25;100.00;52623.69;2070758;28;36220;-77
2023/12/18 02:25:54;;;;;;;34.08;16.83;;;;;;;-146.25;100.00;52670.31;2070990;28;30984;-77
2023/12/18 02:26:58;;;;;;;32.13;16.17;;;;;;;-146.25;100.00;52674.38;2072176;28;20137;-77
2023/12/18 02:28:03;;;;;;;33.28;16.83;;;;;;;-146.25;100.00;52627.75;2071386;28;38004;-77
2023/12/18 02:29:04;;;;;;;33.38;16.67;;;;;;;-146.25;100.00;52643.97;2071118;28;21123;-76
2023/12/18 02:30:23;;;;;;;33.65;16.23;;;;;;;-146.25;100.00;52660.19;2071134;28;36139;-77
2023/12/18 02:31:25;;;;;;;33.67;17.48;;;;;;;-146.25;100.00;52639.91;2071953;28;28586;-75
2023/12/18 02:32:27;;;;;;;32.80;16.90;;;;;;;-146.25;100.00;52654.09;2071656;28;34044;-77
2023/12/18 02:33:29;;;;;;;37.97;16.83;;;;;;;-146.25;100.00;52645.97;2071339;28;37618;-77
2023/12/18 02:34:31;;;;;;;31.02;17.40;;;;;;;-146.25;100.00;52617.59;2072544;28;27196;-77
2023/12/18 02:35:35;;;;;;;31.98;17.27;;;;;;;-146.25;100.00;52625.72;2071098;28;31913;-75
2023/12/18 02:36:37;;;;;;;31.48;16.58;;;;;;;-146.25;100.00;52643.97;2071578;28;39576;-77
2023/12/18 02:37:41;;;;;;;31.50;16.23;;;;;;;-146.25;100.00;52639.91;2071178;28;34145;-77
2023/12/18 02:38:46;;;;;;;33.92;17.65;;;;;;;-146.25;100.00;52645.97;2072408;28;20046;-77
2023/12/18 02:39:48;;;;;;;37.20;17.67;;;;;;;-146.25;100.00;52633.81;2071110;28;35781;-78
2023/12/18 02:40:50;;;;;;;34.55;16.42;;;;;;;-146.25;100.00;52639.91;2071427;28;33810;-76
2023/12/18 02:41:51;;;;;;;32.63;16.90;;;;;;;-146.25;100.00;52591.25;2071318;28;34274;-74
2023/12/18 02:42:53;;;;;;;34.92;16.40;;;;;;;-146.25;100.00;52652.06;2072017;28;35042;-76
2023/12/18 02:43:56;;;;;;;34.33;17.83;;;;;;;-146.25;100.00;52645.97;2070460;28;37040;-75
2023/12/18 02:44:58;;;;;;;35.90;17.17;;;;;;;-146.25;100.00;52686.53;2070667;28;36503;-78
2023/12/18 02:46:00;;;;;;;29.35;16.77;;;;;;;-146.25;100.00;52637.88;2070652;28;36990;-76
2023/12/18 02:47:03;;;;;;;34.38;17.42;;;;;;;-146.25;100.00;52654.09;2072209;28;20050;-76
2023/12/18 02:48:05;;;;;;;32.22;17.33;;;;;;;-146.25;100.00;52613.53;2070692;28;36777;-76
2023/12/18 02:49:07;;;;;;;36.92;17.90;;;;;;;-146.25;100.00;52617.59;2071806;28;20131;-76
2023/12/18 02:50:10;;;;;;;36.63;16.98;;;;;;;-146.25;100.00;52643.97;2071088;28;33739;-76
2023/12/18 02:51:11;;;;;;;32.28;17.00;;;;;;;-146.25;100.00;52645.97;2071618;28;35131;-76
2023/12/18 02:52:13;;;;;;;33.58;16.98;;;;;;;-146.25;100.00;52625.72;2071041;28;34513;-76
2023/12/18 02:53:16;;;;;;;28.80;16.98;;;;;;;-146.25;100.00;52668.28;2071016;28;31473;-76
2023/12/18 02:54:18;;;;;;;32.88;17.95;;;;;;;-146.25;100.00;52648.00;2062367;28;33449;-78
2023/12/18 02:55:19;;;;;;;34.13;17.35;;;;;;;-146.25;100.00;52654.09;2062995;28;35668;-78
2023/12/18 02:56:23;;;;;;;37.85;17.88;;;;;;;-146.25;100.00;52674.38;2062377;28;37572;-78
2023/12/18 02:57:25;;;;;;;34.70;16.85;;;;;;;-146.25;100.00;52666.25;2062867;28;34694;-77
2023/12/18 02:58:26;;;;;;;32.13;17.45;;;;;;;-146.25;100.00;52643.97;2071228;28;33257;-79
2023/12/18 02:59:30;;;;;;;28.48;16.92;;;;;;;-146.25;100.00;52619.63;2072931;28;31921;-77
2023/12/18 03:00:32;;;;;;;38.08;17.55;;;;;;;-146.25;100.00;52656.13;2074618;28;34291;-76
2023/12/18 03:01:35;;;;;;;33.97;17.70;;;;;;;-146.25;100.00;52617.59;2082445;28;20041;-77
2023/12/18 03:02:38;;;;;;;28.48;17.27;;;;;;;-146.25;100.00;52615.56;2081355;28;33783;-76
2023/12/18 03:03:40;;;;;;;31.25;16.90;;;;;;;-146.25;100.00;52623.69;2080906;28;30576;-77
2023/12/18 03:04:42;;;;;;;33.33;17.38;;;;;;;-146.25;100.00;52641.94;2081744;28;28221;-77
2023/12/18 03:05:44;;;;;;;33.35;17.38;;;;;;;-146.25;100.00;52654.09;2080703;28;35043;-77
2023/12/18 03:06:48;;;;;;;38.28;18.50;;;;;;;-146.25;100.00;52631.78;2081168;28;30827;-75
2023/12/18 03:07:50;;;;;;;37.88;18.00;;;;;;;-146.25;100.00;52643.97;2080995;28;30159;-77
2023/12/18 03:08:52;;;;;;;29.77;17.05;;;;;;;-146.25;100.00;52627.75;2080260;28;33218;-75
2023/12/18 03:09:53;;;;;;;42.90;18.20;;;;;;;-146.25;100.00;52652.06;2080686;28;34144;-75
2023/12/18 03:10:55;;;;;;;34.78;17.35;;;;;;;-146.25;100.00;52648.00;2080549;28;36973;-77
2023/12/18 03:11:57;;;;;;;27.88;16.48;;;;;;;-146.25;100.00;52654.09;2080389;28;33347;-76
2023/12/18 03:12:59;;;;;;;36.85;17.27;;;;;;;-146.25;100.00;52668.28;2080004;28;30147;-76
2023/12/18 03:14:03;;;;;;;42.28;16.58;;;;;;;-146.25;100.00;52656.13;2081554;28;20944;-76
2023/12/18 03:15:06;;;;;;;33.63;17.40;;;;;;;-146.25;100.00;52629.75;2080281;28;37355;-75
2023/12/18 03:16:09;;;;;;;31.20;17.42;;;;;;;-146.25;100.00;52613.53;2080913;28;33467;-77
2023/12/18 03:17:11;;;;;;;34.72;17.65;;;;;;;-146.25;100.00;52664.22;2080916;28;30604;-77
2023/12/18 03:18:13;;;;;;;36.35;17.63;;;;;;;-146.25;100.00;52621.66;2080589;28;37579;-78
2023/12/18 03:19:15;;;;;;;37.53;18.08;;;;;;;-146.25;100.00;52666.25;2081223;28;20092;-76
2023/12/18 03:20:17;;;;;;;35.03;17.50;;;;;;;-146.25;100.00;52660.19;2080890;28;36518;-77
2023/12/18 03:21:19;;;;;;;32.33;17.60;;;;;;;-146.25;100.00;52645.97;2080719;28;29189;-76
2023/12/18 03:22:23;;;;;;;40.85;17.90;;;;;;;-146.25;100.00;52668.28;2081143;28;32061;-78
2023/12/18 03:23:25;;;;;;;33.45;18.20;;;;;;;-146.25;100.00;52645.97;2079690;28;37341;-76
2023/12/18 03:24:27;;;;;;;36.63;17.73;;;;;;;-146.25;100.00;52633.81;2080679;28;37862;-76
2023/12/18 03:25:28;;;;;;;36.65;17.38;;;;;;;-146.25;100.00;52623.69;2080358;28;33311;-76
2023/12/18 03:26:30;;;;;;;34.85;17.48;;;;;;;-146.25;100.00;52674.38;2080468;28;36644;-76
2023/12/18 03:27:34;;;;;;;37.63;18.33;;;;;;;-146.25;100.00;52615.56;2075534;28;32885;-75
2023/12/18 03:28:36;;;;;;;35.63;18.83;;;;;;;-146.25;100.00;52656.13;2072635;28;38819;-78
2023/12/18 03:29:37;;;;;;;35.83;18.45;;;;;;;-146.25;100.00;52637.88;2072197;28;32905;-76
2023/12/18 03:30:39;;;;;;;39.53;18.83;;;;;;;-146.25;100.00;52652.06;2072411;28;35408;-76
2023/12/18 03:31:41;;;;;;;41.67;19.08;;;;;;;-146.25;100.00;52635.84;2072402;28;36454;-75
2023/12/18 03:32:43;;;;;;;33.42;17.25;;;;;;;-146.25;100.00;52623.69;2072152;28;38200;-78
2023/12/18 03:33:44;;;;;;;39.03;18.48;;;;;;;-146.25;100.00;52621.66;2072554;28;21509;-76
2023/12/18 03:34:46;;;;;;;38.80;18.25;;;;;;;-146.25;100.00;52631.78;2072457;28;37668;-77
2023/12/18 03:35:48;;;;;;;35.08;18.05;;;;;;;-146.25;100.00;52603.41;2072304;28;35084;-77
2023/12/18 03:36:50;;;;;;;34.33;18.30;;;;;;;-146.25;100.00;52627.75;2073180;28;20053;-77
2023/12/18 03:37:51;;;;;;;33.70;18.20;;;;;;;-146.25;100.00;52676.41;2072210;28;37461;-77
2023/12/18 03:38:53;;;;;;;33.28;17.40;;;;;;;-146.25;100.00;52605.44;2072593;28;32566;-76
2023/12/18 03:39:55;;;;;;;30.58;17.75;;;;;;;-146.25;100.00;52641.94;2072619;28;20795;-75
2023/12/18 03:40:57;;;;;;;36.00;18.13;;;;;;;-146.25;100.00;52637.88;2072654;28;32606;-77
2023/12/18 03:41:58;;;;;;;32.00;18.17;;;;;;;-146.25;100.00;52611.50;2071644;28;32363;-76
2023/12/18 03:43:00;;;;;;;35.03;18.23;;;;;;;-146.25;100.00;52623.69;2072148;28;35065;-76
2023/12/18 03:44:02;;;;;;;37.58;18.88;;;;;;;-146.25;100.00;52635.84;2072293;28;38937;-77
2023/12/18 03:45:05;;;;;;;31.65;17.88;;;;;;;-146.25;100.00;52637.88;2072334;28;35405;-76
2023/12/18 03:46:07;;;;;;;32.42;19.20;;;;;;;-146.25;100.00;52611.50;2072508;28;20049;-77
2023/12/18 03:47:08;;;;;;;34.17;18.20;;;;;;;-146.25;100.00;52660.19;2072084;28;34911;-78
2023/12/18 03:48:10;;;;;;;32.45;17.98;;;;;;;-146.25;100.00;52629.75;2072081;28;34312;-77
2023/12/18 03:49:15;;;;;;;34.67;18.58;;;;;;;-146.25;100.00;52613.53;2072752;28;32977;-75
2023/12/18 03:50:17;;;;;;;31.40;17.27;;;;;;;-146.25;100.00;52645.97;2072243;28;36613;-75
2023/12/18 03:51:19;;;;;;;33.35;17.73;;;;;;;-146.25;100.00;52607.47;2072425;28;35979;-77
2023/12/18 03:52:23;;;;;;;41.78;19.05;;;;;;;-146.25;100.00;52635.84;2073228;28;20742;-77
2023/12/18 03:53:25;;;;;;;38.67;18.10;;;;;;;-146.25;100.00;52656.13;2072433;28;34111;-78
2023/12/18 03:54:26;;;;;;;38.72;17.77;;;;;;;-146.25;100.00;52637.88;2072455;28;31702;-76
2023/12/18 03:55:28;;;;;;;41.30;19.08;;;;;;;-146.25;100.00;52591.25;2071693;28;34065;-77
2023/12/18 03:56:30;;;;;;;35.60;19.08;;;;;;;-146.25;100.00;52650.03;2072124;28;36356;-76
2023/12/18 03:57:32;;;;;;;34.70;19.23;;;;;;;-146.25;100.00;52654.09;2073253;28;20031;-76
2023/12/18 03:58:33;;;;;;;37.30;17.85;;;;;;;-146.25;100.00;52654.09;2071999;28;36888;-75
2023/12/18 03:59:35;;;;;;;40.67;20.40;;;;;;;-146.25;100.00;52672.34;2072022;28;34029;-75
2023/12/18 04:00:41;;;;;;;39.25;20.52;;;;;;;-146.25;100.00;52637.88;2064034;28;20089;-78
2023/12/18 04:01:43;;;;;;;38.15;19.20;;;;;;;-146.25;100.00;52690.59;2065393;28;20054;-78
2023/12/18 04:02:47;;;;;;;35.05;18.95;;;;;;;-146.25;100.00;52637.88;2073784;28;36373;-77
2023/12/18 04:03:49;;;;;;;34.85;19.90;;;;;;;-146.25;100.00;52623.69;2080460;28;37164;-77
2023/12/18 04:04:52;;;;;;;36.35;19.85;;;;;;;-146.25;100.00;52643.97;2080173;28;20038;-75
2023/12/18 04:05:54;;;;;;;34.97;19.13;;;;;;;-146.25;100.00;52639.91;2079426;28;37945;-78
2023/12/18 04:06:56;;;;;;;38.38;19.70;;;;;;;-146.25;100.00;52654.09;2071013;28;33729;-76
2023/12/18 04:07:59;;;;;;;38.47;21.10;;;;;;;-146.25;100.00;52652.06;2072312;28;20045;-78
2023/12/18 04:09:00;;;;;;;37.83;19.35;;;;;;;-146.25;100.00;52635.84;2071092;28;38200;-75
2023/12/18 04:10:03;;;;;;;38.22;20.23;;;;;;;-146.25;100.00;52645.97;2072048;28;27578;-77
2023/12/18 04:11:16;;;;;;;39.30;20.75;;;;;;;-146.25;100.00;52615.56;2080035;28;29037;-76
2023/12/18 04:12:18;;;;;;;43.63;20.77;;;;;;;-146.25;100.00;52611.50;2071743;28;35776;-77
2023/12/18 04:13:19;;;;;;;35.47;20.95;;;;;;;-146.25;100.00;52656.13;2063583;28;31495;-77
2023/12/18 04:14:21;;;;;;;36.13;20.33;;;;;;;-146.25;100.00;52664.22;2064655;28;20102;-77
2023/12/18 04:15:24;;;;;;;37.88;20.48;;;;;;;-146.25;100.00;52611.50;2072243;28;31873;-77
2023/12/18 04:16:25;;;;;;;42.22;21.25;;;;;;;-146.25;100.00;52619.63;2072799;28;29213;-77
2023/12/18 04:17:27;;;;;;;37.55;20.83;;;;;;;-146.25;100.00;52648.00;2071566;28;34326;-77
2023/12/18 04:18:29;;;;;;;44.90;21.02;;;;;;;-146.25;100.00;52633.81;2080662;28;32025;-77
2023/12/18 04:19:31;;;;;;;40.83;21.45;;;;;;;-146.25;100.00;52619.63;2081147;28;32055;-75
2023/12/18 04:20:33;;;;;;;46.22;21.92;;;;;;;-146.25;100.00;52639.91;2080678;28;32404;-78
2023/12/18 04:21:34;;;;;;;40.53;22.15;;;;;;;-146.25;100.00;52658.16;2079442;28;36176;-77
2023/12/18 04:22:37;;;;;;;38.50;22.17;;;;;;;-146.25;100.00;52652.06;2080525;28;20076;-77
2023/12/18 04:23:38;;;;;;;42.63;22.92;;;;;;;-146.25;100.00;52609.50;2080325;28;35026;-76
2023/12/18 04:24:43;;;;;;;34.95;21.50;;;;;;;-146.25;100.00;52603.41;2081204;28;20161;-77
2023/12/18 04:25:45;;;;;;;45.70;22.90;;;;;;;-146.25;100.00;52648.00;2079910;28;37693;-76
2023/12/18 04:26:46;;;;;;;46.40;22.98;;;;;;;-146.25;100.00;52568.94;2080327;28;39917;-77
2023/12/18 04:27:48;;;;;;;37.75;22.35;;;;;;;-146.25;100.00;52654.09;2080926;28;20872;-76
2023/12/18 04:28:50;;;;;;;41.97;22.63;;;;;;;-146.25;100.00;52648.00;2080193;28;36042;-76
2023/12/18 04:29:52;;;;;;;49.75;23.52;;;;;;;-146.25;100.00;52650.03;2080243;28;36196;-75
2023/12/18 04:30:54;;;;;;;43.95;22.95;;;;;;;-146.25;100.00;52623.69;2080529;28;20038;-75
2023/12/18 04:31:56;;;;;;;41.75;23.38;;;;;;;-146.25;100.00;52635.84;2079565;28;37275;-74
2023/12/18 04:32:58;;;;;;;46.65;23.85;;;;;;;-146.25;100.00;52668.28;2072307;28;34618;-76
2023/12/18 04:33:59;;;;;;;45.10;23.95;;;;;;;-146.25;100.00;52615.56;2073077;28;20908;-76
2023/12/18 04:35:02;;;;;;;46.88;23.58;;;;;;;-146.25;100.00;52609.50;2072257;28;34047;-77
2023/12/18 04:36:05;;;;;;;42.53;23.48;;;;;;;-146.25;100.00;52615.56;2071643;28;35917;-75
2023/12/18 04:37:06;;;;;;;47.40;24.85;;;;;;;-146.25;100.00;52609.50;2072829;28;20034;-76
2023/12/18 04:38:11;;;;;;;44.25;24.25;;;;;;;-146.25;100.00;52605.44;2071804;28;35765;-74